Terminal Aerodrome Forecast
Issued by NWS Cleveland, OH

Home | Current Version | Previous Version | Graphics & Text | Print | Product List | Glossary On
Versions: 1 2 3 4 5 6 7 8 9 10 11 12 13 14 15 16 17 18 19
000
FTUS41 KCLE 150539
TAFTOL
TAF
KTOL 150539Z 1506/1606 23008KT 1/4SM FG OVC003
     FM151200 23010KT 2SM BR OVC007
      TEMPO 1512/1515 3SM BR SCT007 BKN020
     FM151800 24010KT 2SM -RA BR OVC007
     FM152300 26007KT 1/2SM -RA FG OVC003=

USA.gov is the U.S. government's official web portal to all federal, state and local government web resources and services.